createdAt,value
2018-09-21T00:00:08.364Z,4.50
2018-09-21T00:02:36.430Z,3.97
2018-09-21T00:05:04.633Z,4.03
2018-09-21T00:07:32.708Z,4.60
2018-09-21T00:10:00.756Z,4.10
2018-09-21T00:12:28.877Z,3.67
2018-09-21T00:14:56.924Z,4.53
2018-09-21T00:17:25.010Z,4.17
2018-09-21T00:19:53.089Z,4.37
2018-09-21T00:22:21.145Z,4.33
2018-09-21T00:24:49.185Z,4.73
2018-09-21T00:27:17.249Z,4.10
2018-09-21T00:29:45.362Z,4.60
2018-09-21T00:32:13.470Z,4.23
2018-09-21T00:34:41.560Z,4.50
2018-09-21T00:37:09.631Z,3.97
2018-09-21T00:39:37.726Z,4.07
2018-09-21T00:42:05.822Z,5.20
2018-09-21T00:44:33.935Z,4.37
2018-09-21T00:47:02.081Z,3.70
2018-09-21T00:49:30.236Z,4.37
2018-09-21T00:51:58.312Z,5.13
2018-09-21T00:54:26.338Z,4.83
2018-09-21T00:56:54.402Z,4.07
2018-09-21T00:59:22.457Z,4.77
2018-09-21T01:01:50.481Z,4.87
2018-09-21T01:04:18.509Z,4.03
2018-09-21T01:06:46.576Z,4.13
2018-09-21T01:09:14.631Z,4.43
2018-09-21T01:11:42.685Z,4.60
2018-09-21T01:14:10.755Z,3.87
2018-09-21T01:16:38.796Z,4.40
2018-09-21T01:19:06.829Z,3.37
2018-09-21T01:21:34.930Z,4.53
2018-09-21T01:24:03.084Z,5.27
2018-09-21T01:26:31.135Z,5.43
2018-09-21T01:28:59.330Z,5.47
2018-09-21T01:31:27.508Z,4.80
2018-09-21T01:33:55.583Z,4.67
2018-09-21T01:36:23.614Z,4.47
2018-09-21T01:38:51.659Z,4.70
2018-09-21T01:41:19.787Z,5.23
2018-09-21T01:43:47.892Z,4.73
2018-09-21T01:46:15.932Z,4.33
2018-09-21T01:48:43.991Z,5.17
2018-09-21T01:51:12.085Z,4.33
2018-09-21T01:53:40.830Z,4.83
2018-09-21T01:56:08.881Z,4.30
2018-09-21T01:58:36.928Z,4.60
2018-09-21T02:01:04.952Z,3.90
2018-09-21T02:03:33.028Z,5.00
2018-09-21T02:06:01.105Z,4.30
2018-09-21T02:08:29.162Z,4.60
2018-09-21T02:10:57.298Z,5.10
2018-09-21T02:13:25.359Z,4.33
2018-09-21T02:15:53.433Z,4.70
2018-09-21T02:18:21.495Z,4.10
2018-09-21T02:20:49.612Z,4.33
2018-09-21T02:23:17.668Z,4.07
2018-09-21T02:25:45.726Z,5.03
2018-09-21T02:28:13.781Z,4.80
2018-09-21T02:30:41.809Z,4.70
2018-09-21T02:33:09.893Z,4.30
2018-09-21T02:35:37.952Z,5.13
2018-09-21T02:38:06.181Z,5.37
2018-09-21T02:40:34.254Z,4.67
2018-09-21T02:43:02.333Z,5.03
2018-09-21T02:45:30.411Z,4.43
2018-09-21T02:47:58.485Z,4.07
2018-09-21T02:50:26.609Z,4.10
2018-09-21T02:52:54.723Z,4.33
2018-09-21T02:55:22.789Z,4.60
2018-09-21T02:57:50.929Z,4.37
2018-09-21T03:00:19.120Z,5.03
2018-09-21T03:02:47.177Z,4.30
2018-09-21T03:05:15.252Z,4.43
2018-09-21T03:07:43.353Z,4.43
2018-09-21T03:10:11.433Z,4.90
2018-09-21T03:12:39.511Z,4.27
2018-09-21T03:15:07.655Z,5.23
2018-09-21T03:17:35.693Z,4.20
2018-09-21T03:20:03.952Z,4.10
2018-09-21T03:22:32.061Z,4.57
2018-09-21T03:25:00.178Z,4.77
2018-09-21T03:27:28.260Z,4.97
2018-09-21T03:29:56.348Z,4.30
2018-09-21T03:32:24.419Z,5.00
2018-09-21T03:34:52.496Z,3.93
2018-09-21T03:37:20.504Z,3.83
2018-09-21T03:39:48.544Z,4.77
2018-09-21T03:42:16.616Z,5.33
2018-09-21T03:44:44.673Z,4.50
2018-09-21T03:47:12.741Z,4.30
2018-09-21T03:49:40.911Z,5.33
2018-09-21T03:52:09.114Z,5.13
2018-09-21T03:54:37.417Z,5.23
2018-09-21T03:57:05.524Z,4.97
2018-09-21T03:59:33.608Z,4.63
2018-09-21T04:02:01.749Z,4.70
2018-09-21T04:04:29.805Z,4.53
2018-09-21T04:06:57.932Z,4.30
2018-09-21T04:09:25.974Z,4.27
2018-09-21T04:11:54.069Z,4.27
2018-09-21T04:14:22.127Z,4.20
2018-09-21T04:16:50.175Z,4.83
2018-09-21T04:19:18.280Z,5.00
2018-09-21T04:21:47.311Z,4.73
2018-09-21T04:24:15.380Z,4.63
2018-09-21T04:26:43.415Z,5.10
2018-09-21T04:29:11.494Z,5.07
2018-09-21T04:31:39.528Z,5.20
2018-09-21T04:34:07.642Z,4.77
2018-09-21T04:36:35.693Z,4.90
2018-09-21T04:39:05.809Z,4.37
2018-09-21T04:41:33.860Z,5.13
2018-09-21T04:44:01.930Z,5.30
2018-09-21T04:46:30.000Z,4.50
2018-09-21T04:48:58.046Z,4.67
2018-09-21T04:51:26.091Z,4.77
2018-09-21T04:53:54.162Z,5.60
2018-09-21T04:56:22.243Z,5.33
2018-09-21T04:58:50.279Z,4.43
2018-09-21T05:01:18.394Z,4.87
2018-09-21T05:03:46.488Z,5.93
2018-09-21T05:06:14.554Z,4.70
2018-09-21T05:08:42.649Z,5.27
2018-09-21T05:11:10.817Z,4.57
2018-09-21T05:13:38.991Z,5.03
2018-09-21T05:16:07.093Z,5.03
2018-09-21T05:18:35.165Z,4.13
2018-09-21T05:21:03.310Z,5.47
2018-09-21T05:23:31.455Z,5.10
2018-09-21T05:25:59.563Z,5.97
2018-09-21T05:28:27.605Z,5.03
2018-09-21T05:30:55.690Z,5.20
2018-09-21T05:33:23.773Z,4.53
2018-09-21T05:35:51.828Z,5.77
2018-09-21T05:38:19.937Z,5.27
2018-09-21T05:40:47.982Z,5.47
2018-09-21T05:43:16.089Z,5.57
2018-09-21T05:45:44.151Z,5.23
2018-09-21T05:48:12.273Z,5.63
2018-09-21T05:50:40.296Z,5.70
2018-09-21T05:53:08.767Z,5.13
2018-09-21T05:55:36.906Z,5.37
2018-09-21T05:58:05.044Z,5.97
2018-09-21T06:00:34.104Z,6.10
2018-09-21T06:03:02.175Z,6.07
2018-09-21T06:05:30.268Z,5.77
2018-09-21T06:07:58.378Z,5.07
2018-09-21T06:10:26.446Z,6.87
2018-09-21T06:12:55.319Z,6.43
2018-09-21T06:15:23.364Z,7.17
2018-09-21T06:17:51.398Z,5.63
2018-09-21T06:20:19.451Z,6.00
2018-09-21T06:22:47.572Z,5.57
2018-09-21T06:25:15.627Z,6.23
2018-09-21T06:27:43.677Z,6.33
2018-09-21T06:30:11.720Z,5.60
2018-09-21T06:32:39.898Z,5.13
2018-09-21T06:35:07.981Z,5.60
2018-09-21T06:37:36.056Z,5.63
2018-09-21T06:40:04.196Z,5.87
2018-09-21T06:42:32.258Z,5.37
2018-09-21T06:45:00.344Z,5.87
2018-09-21T06:47:28.414Z,5.67
2018-09-21T06:49:56.505Z,5.37
2018-09-21T06:52:24.678Z,5.93
2018-09-21T06:54:52.710Z,6.77
2018-09-21T06:57:20.758Z,5.50
2018-09-21T06:59:48.816Z,7.00
2018-09-21T07:02:16.880Z,6.97
2018-09-21T07:04:44.991Z,6.03
2018-09-21T07:07:13.052Z,6.40
2018-09-21T07:09:41.142Z,5.53
2018-09-21T07:12:09.234Z,5.93
2018-09-21T07:14:37.301Z,6.10
2018-09-21T07:17:05.396Z,6.07
2018-09-21T07:19:33.454Z,5.80
2018-09-21T07:22:01.494Z,6.47
2018-09-21T07:24:29.526Z,6.27
2018-09-21T07:26:57.599Z,5.23
2018-09-21T07:29:25.626Z,5.77
2018-09-21T07:31:53.731Z,6.80
2018-09-21T07:34:21.777Z,6.47
2018-09-21T07:36:49.858Z,6.75
2018-09-21T07:39:17.992Z,6.85
2018-09-21T07:41:46.897Z,7.55
2018-09-21T07:44:14.986Z,6.47
2018-09-21T07:46:43.064Z,5.97
2018-09-21T07:49:11.239Z,5.85
2018-09-21T07:51:39.319Z,6.22
2018-09-21T07:54:07.412Z,6.05
2018-09-21T07:56:35.490Z,6.53
2018-09-21T07:59:03.653Z,6.97
2018-09-21T08:01:31.736Z,6.37
2018-09-21T08:03:59.786Z,6.90
2018-09-21T08:06:27.883Z,6.37
2018-09-21T08:08:55.909Z,7.22
2018-09-21T08:11:24.020Z,6.50
2018-09-21T08:13:52.068Z,5.78
2018-09-21T08:16:20.107Z,6.08
2018-09-21T08:18:48.244Z,6.28
2018-09-21T08:21:16.368Z,6.75
2018-09-21T08:23:44.464Z,6.03
2018-09-21T08:26:12.554Z,6.17
2018-09-21T08:28:40.611Z,6.50
2018-09-21T08:31:08.689Z,6.65
2018-09-21T08:33:36.796Z,6.60
2018-09-21T08:36:04.925Z,6.05
2018-09-21T08:38:32.967Z,6.55
2018-09-21T08:41:01.264Z,6.37
2018-09-21T08:43:29.569Z,6.10
2018-09-21T08:45:57.605Z,6.62
2018-09-21T08:48:25.672Z,6.62
2018-09-21T08:50:53.718Z,6.55
2018-09-21T08:53:21.772Z,6.53
2018-09-21T08:55:49.819Z,6.45
2018-09-21T08:58:17.867Z,6.35
2018-09-21T09:00:45.908Z,5.87
2018-09-21T09:03:14.070Z,6.12
2018-09-21T09:05:46.511Z,5.85
2018-09-21T09:08:14.583Z,7.00
2018-09-21T09:10:42.630Z,7.50
2018-09-21T09:13:10.741Z,6.35
2018-09-21T09:15:38.754Z,6.55
2018-09-21T09:18:06.815Z,6.40
2018-09-21T09:20:34.876Z,6.72
2018-09-21T09:23:02.933Z,6.37
2018-09-21T09:25:30.997Z,5.95
2018-09-21T09:27:59.255Z,5.90
2018-09-21T09:30:27.315Z,5.35
2018-09-21T09:32:55.395Z,6.95
2018-09-21T09:35:23.428Z,6.08
2018-09-21T09:37:51.585Z,6.33
2018-09-21T09:40:19.719Z,7.20
2018-09-21T09:42:47.947Z,6.10
2018-09-21T09:45:15.952Z,6.42
2018-09-21T09:47:44.075Z,6.55
2018-09-21T09:50:12.404Z,6.12
2018-09-21T09:52:40.999Z,5.42
2018-09-21T09:55:09.068Z,5.53
2018-09-21T09:57:37.145Z,5.83
2018-09-21T10:00:06.365Z,6.45
2018-09-21T10:02:34.500Z,5.47
2018-09-21T10:05:03.510Z,5.62
2018-09-21T10:07:31.552Z,5.22
2018-09-21T10:09:59.836Z,5.20
2018-09-21T10:12:27.901Z,5.40
2018-09-21T10:14:55.980Z,5.15
2018-09-21T10:17:24.020Z,5.50
2018-09-21T10:19:52.404Z,4.78
2018-09-21T10:22:20.446Z,5.97
2018-09-21T10:24:48.488Z,4.60
2018-09-21T10:27:16.702Z,4.92
2018-09-21T10:29:44.734Z,4.35
2018-09-21T10:32:12.829Z,5.30
2018-09-21T10:34:40.935Z,5.28
2018-09-21T10:37:09.017Z,4.92
2018-09-21T10:39:37.137Z,5.70
2018-09-21T10:42:05.191Z,6.22
2018-09-21T10:44:33.281Z,6.08
2018-09-21T10:47:01.336Z,5.83
2018-09-21T10:49:29.383Z,5.97
2018-09-21T10:51:57.526Z,5.08
2018-09-21T10:54:25.674Z,5.55
2018-09-21T10:56:53.740Z,5.72
2018-09-21T10:59:21.793Z,4.95
2018-09-21T11:01:49.860Z,5.50
2018-09-21T11:04:17.941Z,5.83
2018-09-21T11:06:46.093Z,6.00
2018-09-21T11:09:14.166Z,5.47
2018-09-21T11:11:42.226Z,5.37
2018-09-21T11:14:10.336Z,5.42
2018-09-21T11:16:38.389Z,5.25
2018-09-21T11:19:06.482Z,5.03
2018-09-21T11:21:34.595Z,5.33
2018-09-21T11:24:02.927Z,5.90
2018-09-21T11:26:30.963Z,4.83
2018-09-21T11:28:59.020Z,5.50
2018-09-21T11:31:27.104Z,5.33
2018-09-21T11:33:55.163Z,6.40
2018-09-21T11:36:23.228Z,5.47
2018-09-21T11:38:51.350Z,5.62
2018-09-21T11:41:19.452Z,5.05
2018-09-21T11:43:47.510Z,5.53
2018-09-21T11:46:16.273Z,5.65
2018-09-21T11:48:44.348Z,5.47
2018-09-21T11:51:12.404Z,4.58
2018-09-21T11:53:40.472Z,5.05
2018-09-21T11:56:08.521Z,5.53
2018-09-21T11:58:36.638Z,5.67
2018-09-21T12:01:04.740Z,5.60
2018-09-21T12:03:32.774Z,5.37
2018-09-21T12:06:04.118Z,5.50
2018-09-21T12:08:32.230Z,4.90
2018-09-21T12:11:00.379Z,5.47
2018-09-21T12:13:28.455Z,5.47
2018-09-21T12:15:56.565Z,5.08
2018-09-21T12:18:24.604Z,5.90
2018-09-21T12:20:52.672Z,6.15
2018-09-21T12:23:20.761Z,4.97
2018-09-21T12:25:48.817Z,5.50
2018-09-21T12:28:16.883Z,5.85
2018-09-21T12:30:44.915Z,5.53
2018-09-21T12:33:13.056Z,5.55
2018-09-21T12:35:41.153Z,5.35
2018-09-21T12:38:09.221Z,5.33
2018-09-21T12:40:37.286Z,5.53
2018-09-21T12:43:05.642Z,5.72
2018-09-21T12:45:33.690Z,5.05
2018-09-21T12:48:01.797Z,4.97
2018-09-21T12:50:29.917Z,5.80
2018-09-21T12:52:57.941Z,5.87
2018-09-21T12:55:26.083Z,5.12
2018-09-21T12:57:54.229Z,5.70
2018-09-21T13:00:22.307Z,5.67
2018-09-21T13:02:50.337Z,5.10
2018-09-21T13:05:18.413Z,5.40
2018-09-21T13:07:46.446Z,4.90
2018-09-21T13:10:14.848Z,5.30
2018-09-21T13:12:42.918Z,5.33
2018-09-21T13:15:10.985Z,5.67
2018-09-21T13:17:39.069Z,5.47
2018-09-21T13:20:07.129Z,6.12
2018-09-21T13:22:35.176Z,5.62
2018-09-21T13:25:03.357Z,5.03
2018-09-21T13:27:31.395Z,5.00
2018-09-21T13:29:59.489Z,5.90
2018-09-21T13:32:27.600Z,5.00
2018-09-21T13:34:55.678Z,5.47
2018-09-21T13:37:23.757Z,5.03
2018-09-21T13:39:52.130Z,5.65
2018-09-21T13:42:20.228Z,5.28
2018-09-21T13:44:48.247Z,5.20
2018-09-21T13:47:16.295Z,5.55
2018-09-21T13:49:44.401Z,4.90
2018-09-21T13:52:12.491Z,5.05
2018-09-21T13:54:40.570Z,5.35
2018-09-21T13:57:08.639Z,5.53
2018-09-21T13:59:36.837Z,4.95
2018-09-21T14:02:05.042Z,5.42
2018-09-21T14:04:33.104Z,5.22
2018-09-21T14:07:01.166Z,4.67
2018-09-21T14:09:29.308Z,5.05
2018-09-21T14:11:57.425Z,5.10
2018-09-21T14:14:25.471Z,5.20
2018-09-21T14:16:53.526Z,5.40
2018-09-21T14:19:21.714Z,5.55
2018-09-21T14:21:49.891Z,5.28
2018-09-21T14:24:18.066Z,5.25
2018-09-21T14:26:46.239Z,5.42
2018-09-21T14:29:14.416Z,5.42
2018-09-21T14:31:42.692Z,5.83
2018-09-21T14:34:10.864Z,5.42
2018-09-21T14:36:39.345Z,5.53
2018-09-21T14:39:09.057Z,5.33
2018-09-21T14:41:37.224Z,5.62
2018-09-21T14:44:06.530Z,4.97
2018-09-21T14:46:34.708Z,5.30
2018-09-21T14:49:02.879Z,4.95
2018-09-21T14:51:31.158Z,4.92
2018-09-21T14:53:59.435Z,4.80
2018-09-21T14:56:27.936Z,4.62
2018-09-21T14:58:56.191Z,4.72
2018-09-21T15:01:24.306Z,5.17
2018-09-21T15:03:52.479Z,4.85
2018-09-21T15:06:21.229Z,4.05
2018-09-21T15:08:49.504Z,4.37
2018-09-21T15:11:17.887Z,4.97
2018-09-21T15:13:46.159Z,4.80
2018-09-21T15:16:14.504Z,4.25
2018-09-21T15:18:42.544Z,5.30
2018-09-21T15:21:10.634Z,5.22
2018-09-21T15:23:38.704Z,3.85
2018-09-21T15:26:06.768Z,3.95
2018-09-21T15:28:34.858Z,4.50
2018-09-21T15:31:02.949Z,4.55
2018-09-21T15:33:31.041Z,4.70
2018-09-21T15:35:59.117Z,4.35
2018-09-21T15:38:27.247Z,4.95
2018-09-21T15:40:55.329Z,5.03
2018-09-21T15:43:23.866Z,3.95
2018-09-21T15:45:51.859Z,5.15
2018-09-21T15:48:19.984Z,4.93
2018-09-21T15:50:48.049Z,7.20
2018-09-21T15:53:16.164Z,5.63
2018-09-21T15:55:44.324Z,4.77
2018-09-21T15:58:12.391Z,6.33
2018-09-21T16:00:40.458Z,4.87
2018-09-21T16:03:08.581Z,4.80
2018-09-21T16:05:36.673Z,4.97
2018-09-21T16:08:04.896Z,5.03
2018-09-21T16:10:32.962Z,4.70
2018-09-21T16:13:01.078Z,4.10
2018-09-21T16:15:29.283Z,5.00
2018-09-21T16:17:57.335Z,4.83
2018-09-21T16:20:26.035Z,4.50
2018-09-21T16:22:54.112Z,4.40
2018-09-21T16:25:22.198Z,4.57
2018-09-21T16:27:50.300Z,4.87
2018-09-21T16:30:18.417Z,4.90
2018-09-21T16:32:46.503Z,4.33
2018-09-21T16:35:14.575Z,5.83
2018-09-21T16:37:42.707Z,4.53
2018-09-21T16:40:10.745Z,4.43
2018-09-21T16:42:38.874Z,5.43
2018-09-21T16:45:07.106Z,4.97
2018-09-21T16:47:35.236Z,5.23
2018-09-21T16:50:03.473Z,4.77
2018-09-21T16:52:31.610Z,5.23
2018-09-21T16:54:59.662Z,5.00
2018-09-21T16:57:27.738Z,4.80
2018-09-21T16:59:55.832Z,4.57
2018-09-21T17:02:23.928Z,5.10
2018-09-21T17:04:52.229Z,4.60
2018-09-21T17:07:20.302Z,4.90
2018-09-21T17:09:48.990Z,4.90
2018-09-21T17:12:17.566Z,5.30
2018-09-21T17:14:45.628Z,5.33
2018-09-21T17:17:13.746Z,4.53
2018-09-21T17:19:41.912Z,6.20
2018-09-21T17:22:09.995Z,6.13
2018-09-21T17:24:38.381Z,5.27
2018-09-21T17:27:06.503Z,4.97
2018-09-21T17:29:34.699Z,6.03
2018-09-21T17:32:02.870Z,5.70
2018-09-21T17:34:31.029Z,5.53
2018-09-21T17:36:59.220Z,5.07
2018-09-21T17:39:27.345Z,5.50
2018-09-21T17:41:55.410Z,5.30
2018-09-21T17:44:24.268Z,5.17
2018-09-21T17:46:52.431Z,4.90
2018-09-21T17:49:21.252Z,7.23
2018-09-21T17:51:49.316Z,5.53
2018-09-21T17:54:17.445Z,5.40
2018-09-21T17:56:45.669Z,6.00
2018-09-21T17:59:13.808Z,4.40
2018-09-21T18:01:42.089Z,5.20
2018-09-21T18:04:10.275Z,5.23
2018-09-21T18:06:38.730Z,4.83
2018-09-21T18:09:09.859Z,5.87
2018-09-21T18:11:39.148Z,4.97
2018-09-21T18:14:08.311Z,5.17
2018-09-21T18:16:36.473Z,4.97
2018-09-21T18:19:05.192Z,6.33
2018-09-21T18:21:33.746Z,5.13
2018-09-21T18:24:01.893Z,5.27
2018-09-21T18:29:05.110Z,6.17
2018-09-21T18:31:33.576Z,4.60
2018-09-21T18:34:01.821Z,7.43
2018-09-21T18:36:30.105Z,5.30
2018-09-21T18:38:58.292Z,5.40
2018-09-21T18:41:26.483Z,5.27
2018-09-21T18:43:54.598Z,5.33
2018-09-21T18:46:22.854Z,5.80
2018-09-21T18:48:51.034Z,5.73
2018-09-21T18:51:19.206Z,5.20
2018-09-21T18:53:47.432Z,5.47
2018-09-21T18:56:15.742Z,4.83
2018-09-21T18:58:44.345Z,5.97
2018-09-21T19:01:12.892Z,5.20
2018-09-21T19:03:41.208Z,6.57
2018-09-21T19:06:09.674Z,6.20
2018-09-21T19:08:38.189Z,5.40
2018-09-21T19:11:06.870Z,5.23
2018-09-21T19:13:35.064Z,6.63
2018-09-21T19:16:03.465Z,5.47
2018-09-21T19:18:32.020Z,5.90
2018-09-21T19:21:00.485Z,7.10
2018-09-21T19:23:28.943Z,5.97
2018-09-21T19:25:57.456Z,6.20
2018-09-21T19:28:26.382Z,5.73
2018-09-21T19:30:54.888Z,5.17
2018-09-21T19:33:23.371Z,6.27
2018-09-21T19:35:51.832Z,6.90
2018-09-21T19:38:20.041Z,6.30
2018-09-21T19:40:48.219Z,5.23
2018-09-21T19:43:16.451Z,5.73
2018-09-21T19:45:44.952Z,5.83
2018-09-21T19:48:13.093Z,6.30
2018-09-21T19:50:41.854Z,6.23
2018-09-21T19:53:10.022Z,4.87
2018-09-21T19:55:40.740Z,5.67
2018-09-21T19:58:11.263Z,6.00
2018-09-21T20:00:40.389Z,5.87
2018-09-21T20:03:08.817Z,4.90
2018-09-21T20:05:39.224Z,4.83
2018-09-21T20:08:07.755Z,6.17
2018-09-21T20:10:36.015Z,6.30
2018-09-21T20:13:04.398Z,6.17
2018-09-21T20:15:33.252Z,6.27
2018-09-21T20:18:01.962Z,6.87
2018-09-21T20:20:30.808Z,6.20
2018-09-21T20:22:59.519Z,6.23
2018-09-21T20:25:28.290Z,5.93
2018-09-21T20:27:56.937Z,6.13
2018-09-21T20:30:30.996Z,5.73
2018-09-21T20:33:34.533Z,6.40
2018-09-21T20:36:02.880Z,5.83
2018-09-21T20:38:31.430Z,6.50
2018-09-21T20:40:59.502Z,7.87
2018-09-21T20:43:27.571Z,6.13
2018-09-21T20:45:55.847Z,6.73
2018-09-21T20:48:24.426Z,6.07
2018-09-21T20:50:52.721Z,6.47
2018-09-21T20:53:21.657Z,6.20
2018-09-21T20:55:49.739Z,5.60
2018-09-21T20:58:17.919Z,6.57
2018-09-21T21:00:46.009Z,6.10
2018-09-21T21:03:14.402Z,6.63
2018-09-21T21:05:42.477Z,5.53
2018-09-21T21:08:10.692Z,5.90
2018-09-21T21:10:38.760Z,6.07
2018-09-21T21:13:06.948Z,5.47
2018-09-21T21:15:34.968Z,6.47
2018-09-21T21:18:03.027Z,6.27
2018-09-21T21:20:31.135Z,5.57
2018-09-21T21:22:59.263Z,6.20
2018-09-21T21:25:27.357Z,6.33
2018-09-21T21:27:55.486Z,6.70
2018-09-21T21:30:23.533Z,6.53
2018-09-21T21:32:51.754Z,5.70
2018-09-21T21:35:20.134Z,6.40
2018-09-21T21:37:48.321Z,6.37
2018-09-21T21:40:16.905Z,6.57
2018-09-21T21:42:45.207Z,6.13
2018-09-21T21:45:13.646Z,6.13
2018-09-21T21:47:41.752Z,6.37
2018-09-21T21:50:09.967Z,6.53
2018-09-21T21:52:38.811Z,5.53
2018-09-21T21:55:06.960Z,7.33
2018-09-21T21:57:35.054Z,6.17
2018-09-21T22:00:03.287Z,6.43
2018-09-21T22:02:35.549Z,6.73
2018-09-21T22:05:03.756Z,7.37
2018-09-21T22:07:34.103Z,5.73
2018-09-21T22:10:04.003Z,6.37
2018-09-21T22:12:37.805Z,6.33
2018-09-21T22:15:10.907Z,6.47
2018-09-21T22:17:39.045Z,5.93
2018-09-21T22:20:07.225Z,6.60
2018-09-21T22:22:35.501Z,6.23
2018-09-21T22:25:03.845Z,6.47
2018-09-21T22:27:31.966Z,6.30
2018-09-21T22:30:00.036Z,6.10
2018-09-21T22:32:28.150Z,6.50
2018-09-21T22:34:56.331Z,5.97
2018-09-21T22:37:24.568Z,6.10
2018-09-21T22:39:52.683Z,6.50
2018-09-21T22:42:21.363Z,5.33
2018-09-21T22:44:49.547Z,6.63
2018-09-21T22:47:17.723Z,6.47
2018-09-21T22:49:45.821Z,5.77
2018-09-21T22:52:13.993Z,5.37
2018-09-21T22:54:42.184Z,5.30
2018-09-21T22:57:10.333Z,6.63
2018-09-21T22:59:38.389Z,6.20
2018-09-21T23:02:06.608Z,6.10
2018-09-21T23:04:34.708Z,6.20
2018-09-21T23:07:02.947Z,5.97
2018-09-21T23:09:31.020Z,6.73
2018-09-21T23:11:59.132Z,6.07
2018-09-21T23:14:27.365Z,6.40
2018-09-21T23:16:55.436Z,6.27
2018-09-21T23:19:23.515Z,5.70
2018-09-21T23:21:51.557Z,7.30
2018-09-21T23:24:19.614Z,6.93
2018-09-21T23:26:47.767Z,6.10
2018-09-21T23:29:15.877Z,5.53
2018-09-21T23:31:43.991Z,6.87
2018-09-21T23:34:12.186Z,6.13
2018-09-21T23:36:40.234Z,6.50
2018-09-21T23:39:09.369Z,7.40
2018-09-21T23:41:37.605Z,6.17
2018-09-21T23:44:05.745Z,5.87
2018-09-21T23:46:33.881Z,7.10
2018-09-21T23:49:01.968Z,6.63
2018-09-21T23:51:30.026Z,6.27
2018-09-21T23:53:58.205Z,6.77
2018-09-21T23:56:26.284Z,6.40
2018-09-21T23:58:54.318Z,6.77
